Time,TemperatureF,DewpointF,PressureIn,WindDirection,WindDirectionDegrees,WindSpeedMPH,WindSpeedGustMPH,Humidity,HourlyPrecipIn,Conditions,Clouds,dailyrainin,SoftwareType,DateUTC
2013-08-21 00:55:00,61.9,55.0,29.95,West,270,0.0,0.0,78,0.00,,,0.00,VWS V14.01,2013-08-21 04:55:00,
2013-08-21 01:55:00,61.3,54.8,29.95,West,270,0.0,0.0,79,0.00,,,0.00,VWS V14.01,2013-08-21 05:55:00,
2013-08-21 02:55:00,60.1,53.9,29.95,West,270,0.0,0.0,80,0.00,,,0.00,VWS V14.01,2013-08-21 06:55:00,
2013-08-21 03:55:00,59.5,53.7,29.95,West,270,0.0,0.0,81,0.00,,,0.00,VWS V14.01,2013-08-21 07:55:00,
2013-08-21 04:55:00,58.8,53.3,29.94,WSW,248,0.0,0.0,82,0.00,,,0.00,VWS V14.01,2013-08-21 08:55:00,
2013-08-21 05:55:00,58.5,53.3,29.95,WSW,248,0.0,0.0,83,0.00,,,0.00,VWS V14.01,2013-08-21 09:55:00,
2013-08-21 06:55:00,57.6,52.8,29.95,WSW,248,0.0,0.0,84,0.00,,,0.00,VWS V14.01,2013-08-21 10:55:00,
2013-08-21 07:55:00,58.6,54.2,29.96,WSW,248,0.0,0.0,85,0.00,,,0.00,VWS V14.01,2013-08-21 11:55:00,
2013-08-21 08:55:00,63.7,58.1,29.96,WSW,248,0.0,0.0,82,0.00,,,0.00,VWS V14.01,2013-08-21 12:55:00,
2013-08-21 09:55:00,71.2,62.2,29.97,West,270,0.0,0.0,73,0.00,,,0.00,VWS V14.01,2013-08-21 13:55:00,
2013-08-21 10:55:00,76.5,64.7,29.96,SW,225,0.0,0.0,67,0.00,,,0.00,VWS V14.01,2013-08-21 14:55:00,
2013-08-21 11:55:00,79.2,64.6,29.96,NE,45,0.0,0.0,61,0.00,,,0.00,VWS V14.01,2013-08-21 15:55:00,
2013-08-21 12:55:00,81.1,65.0,29.95,West,270,0.0,0.0,58,0.00,,,0.00,VWS V14.01,2013-08-21 16:55:00,
2013-08-21 13:55:00,82.0,64.3,29.94,NE,45,1.1,1.1,55,0.00,,,0.00,VWS V14.01,2013-08-21 17:55:00,
2013-08-21 14:55:00,84.7,64.6,29.93,NNE,22,0.0,1.1,51,0.00,,,0.00,VWS V14.01,2013-08-21 18:55:00,
2013-08-21 15:55:00,84.0,65.1,29.91,NNW,338,0.0,0.0,53,0.00,,,0.00,VWS V14.01,2013-08-21 19:55:00,
2013-08-21 16:55:00,82.6,63.7,29.89,NNW,338,0.0,0.0,53,0.00,,,0.00,VWS V14.01,2013-08-21 20:55:00,
2013-08-21 17:55:00,78.6,63.6,29.89,South,180,0.0,0.0,60,0.00,,,0.00,VWS V14.01,2013-08-21 21:55:00,
2013-08-21 18:55:00,76.3,62.8,29.88,SW,225,0.0,0.0,63,0.00,,,0.00,VWS V14.01,2013-08-21 22:55:00,
2013-08-21 19:55:00,73.0,60.2,29.86,North,0,0.0,0.0,64,0.00,,,0.00,VWS V14.01,2013-08-21 23:55:00,
2013-08-21 20:55:00,69.6,59.0,29.86,North,0,0.0,0.0,69,0.00,,,0.00,VWS V14.01,2013-08-22 00:55:00,
2013-08-21 21:55:00,66.6,58.0,29.86,North,0,0.0,0.0,74,0.00,,,0.00,VWS V14.01,2013-08-22 01:55:00,
2013-08-21 22:55:00,64.0,57.0,29.85,North,0,0.0,0.0,78,0.00,,,0.00,VWS V14.01,2013-08-22 02:55:00,
2013-08-21 23:55:00,62.8,57.2,29.86,North,0,0.0,0.0,82,0.00,,,0.00,VWS V14.01,2013-08-22 03:55:00,